البصرة, العراق

03:15 AM AST on أعس×س 31, 2014 (GMT +0300)
Basrah International | Change Station
CLOSE
Current Station
Airport
Location: Basrah,
Elevation: 7 ft
Nearby Weather Stations

Elev 7 ft 30.52 °N, 47.78 °E | Updated 15 minutes ago

Clear
صافية
88 °F
Feels Like 100 °F
N
7
ريح متغير ريح from SSE

هذا اليوم
High -- | Low -- °F
--% Chance of Precip.
Yesterday
High -- | Low -- °F
Precip. -- في
5:24 AM 6:13 PM
الهلال الأول, 25% visible
الضغط 29.56 في
وضوح الرؤية 5.0 أميال
سحابات
مؤشر الحرارة 100 °F
نقطة الندى 77 °F
الرطوبة 70%
Rainfall 0.00 في
عمق الثلج Not available.
الأشعة فوق البنفسجية Not available.
Pollen Not available.
جودة الهواء Not available.
Flu Activity Not available.
METAR ORMM 310000Z 16006KT 8000 NSC 31/25 Q1001 NOSIG

More Conditions Fewer Conditions

الضغط 29.56 في
وضوح الرؤية 5.0 أميال
سحابات
مؤشر الحرارة 100 °F
نقطة الندى 77 °F
الرطوبة 70%
Rainfall 0.00 في
عمق الثلج Not available.
الأشعة فوق البنفسجية Not available.
Pollen Not available.
جودة الهواء Not available.
Flu Activity Not available.
METAR ORMM 310000Z 16006KT 8000 NSC 31/25 Q1001 NOSIG

More Conditions Fewer Conditions

10-Day Weather Forecast

Almanac

علم الفلك

Aug. 31, 2014 Rise Set
Actual Time 5:24 AM AST 6:13 PM AST
Civil Twilight 5:00 AM AST 6:37 PM AST
Nautical Twilight 4:31 AM AST 7:06 PM AST
Astronomical Twilight 4:01 AM AST 7:36 PM AST
قمر 10:24 AM AST 9:37 PM AST
Length Of Visible Light 13h 37m
طول الیوم
12h 48m
Tomorrow will be 1m 46s shorter.
الهلال الأول, 25% of the Moon is Illuminated
Aug 30
الهلال الأول
Sep 2
الربع الاول
Sep 8
بدر
Sep 15
الربع الآخر
Sep 24
New

Yesterday's Extremes

Country Highs Country Lows

Community

WunderPhotos

Upload Photos

1,748,696 photos uploaded!

Nearby

جودة الهواء

Not available.

عمق الثلج

Not available.

Earthquake Activity

City Distance Mag. Time & Date
No recent earthquake activity has been reported nearby.
Minimum magnitude displayed is 2.5.

Coastal Water Temperatures

مكان درجات الحرارة
No Stations Reporting

Nearby Weather Stations